Time;durP1;ratioP1;P1;durP2;ratioP2;P2;SDS_P1;SDS_P2;PMS_P1;PMS_P2;Temp;Humidity;BMP_temperature;BMP_pressure;BME280_temperature;BME280_humidity;BME280_pressure;Samples;Min_cycle;Max_cycle;Signal;HPM_P1;HPM_P2
2021/03/08 00:01:47;;;;;;;0.73;0.73;;;;;;;2.31;91.36;100945.97;5071792;28;20261;-73
2021/03/08 00:04:12;;;;;;;4.03;3.70;;;;;;;2.32;91.34;100941.44;5071562;28;20257;-73
2021/03/08 00:06:37;;;;;;;2.63;2.27;;;;;;;2.33;91.59;100941.19;5071279;28;20179;-73
2021/03/08 00:09:03;;;;;;;5.70;5.13;;;;;;;2.32;91.80;100947.63;5071292;28;20214;-73
2021/03/08 00:11:28;;;;;;;8.23;4.13;;;;;;;2.33;92.33;100945.75;5071521;28;20186;-73
2021/03/08 00:13:53;;;;;;;3.13;2.83;;;;;;;2.33;92.50;100938.50;5071281;28;20686;-73
2021/03/08 00:16:19;;;;;;;16.70;3.77;;;;;;;2.31;92.76;100945.97;5069707;28;20182;-73
2021/03/08 00:18:44;;;;;;;4.27;2.10;;;;;;;2.30;93.12;100946.22;5071396;28;20266;-73
2021/03/08 00:21:09;;;;;;;1.40;1.30;;;;;;;2.25;93.26;100938.88;5071206;28;20277;-73
2021/03/08 00:23:35;;;;;;;2.97;2.77;;;;;;;2.25;93.55;100938.06;5071119;28;20194;-73
2021/03/08 00:26:00;;;;;;;1.80;1.70;;;;;;;2.21;93.67;100953.91;5071390;28;20249;-73
2021/03/08 00:28:25;;;;;;;2.43;2.30;;;;;;;2.17;94.13;100958.16;5070557;28;20167;-73
2021/03/08 00:30:51;;;;;;;0.83;0.77;;;;;;;2.15;94.76;100954.88;5071079;28;20576;-73
2021/03/08 00:33:16;;;;;;;9.27;4.33;;;;;;;2.13;94.69;100962.38;5071014;28;20253;-73
2021/03/08 00:35:42;;;;;;;1.80;1.70;;;;;;;2.13;95.23;100959.69;5071004;28;20174;-73
2021/03/08 00:38:07;;;;;;;2.07;1.97;;;;;;;2.11;95.31;100956.41;5070760;28;20258;-73
2021/03/08 00:40:32;;;;;;;2.07;1.87;;;;;;;2.11;95.47;100953.72;5071197;28;20202;-73
2021/03/08 00:42:58;;;;;;;8.50;4.90;;;;;;;2.13;95.65;100964.25;5070917;28;20225;-73
2021/03/08 00:45:23;;;;;;;4.03;3.73;;;;;;;2.15;95.25;100962.94;5070160;28;20171;-73
2021/03/08 00:47:49;;;;;;;7.47;5.00;;;;;;;2.18;95.42;100962.50;5070752;28;20231;-73
2021/03/08 00:50:22;;;;;;;7.53;5.60;;;;;;;2.20;95.48;100959.56;5070907;28;20265;-74
2021/03/08 00:52:47;;;;;;;7.53;6.90;;;;;;;2.21;95.58;100956.59;5070862;28;20167;-73
2021/03/08 00:55:14;;;;;;;4.37;4.07;;;;;;;2.23;95.64;100959.06;5070851;28;20216;-73
2021/03/08 00:57:40;;;;;;;7.07;6.47;;;;;;;2.22;95.62;100949.34;5070608;28;20201;-73
2021/03/08 01:00:09;;;;;;;4.60;4.30;;;;;;;2.20;95.19;100954.16;5070950;28;20244;-73
2021/03/08 01:02:34;;;;;;;6.77;4.47;;;;;;;2.19;95.16;100953.34;5070799;28;20194;-73
2021/03/08 01:05:00;;;;;;;5.33;4.93;;;;;;;2.19;95.08;100952.53;5070609;28;20479;-73
2021/03/08 01:07:25;;;;;;;8.57;7.80;;;;;;;2.17;95.23;100951.94;5070265;28;20526;-73
2021/03/08 01:09:51;;;;;;;5.97;5.07;;;;;;;2.12;95.27;100951.84;5070561;28;20202;-73
2021/03/08 01:12:16;;;;;;;10.47;5.23;;;;;;;2.14;95.04;100958.63;5070574;28;20213;-74
2021/03/08 01:14:41;;;;;;;7.00;4.63;;;;;;;2.09;95.26;100959.34;5070721;28;20189;-73
2021/03/08 01:17:07;;;;;;;5.93;5.33;;;;;;;2.01;94.22;100964.31;5070189;28;20189;-73
2021/03/08 01:19:33;;;;;;;12.63;5.17;;;;;;;1.91;93.23;100947.97;5070991;28;20206;-73
2021/03/08 01:21:59;;;;;;;9.67;4.60;;;;;;;2.08;93.02;100952.34;5070647;28;20174;-74
2021/03/08 01:24:24;;;;;;;3.60;2.67;;;;;;;2.11;92.28;100955.59;5070574;28;20173;-73
2021/03/08 01:26:49;;;;;;;5.33;3.40;;;;;;;1.97;90.75;100960.47;5070325;28;20236;-73
2021/03/08 01:29:15;;;;;;;4.10;3.70;;;;;;;1.76;90.37;100960.09;5070627;28;20627;-73
2021/03/08 01:31:40;;;;;;;3.27;3.00;;;;;;;1.69;89.86;100963.97;5070580;28;20171;-73
2021/03/08 01:34:05;;;;;;;1.77;1.40;;;;;;;1.78;89.59;100963.38;5070654;28;20182;-73
2021/03/08 01:36:31;;;;;;;2.33;2.13;;;;;;;1.66;89.78;100951.00;5070185;28;20646;-73
2021/03/08 01:38:56;;;;;;;1.77;1.63;;;;;;;1.60;89.68;100952.78;5070363;28;20213;-73
2021/03/08 01:41:21;;;;;;;2.67;2.43;;;;;;;1.76;90.23;100959.28;5070263;28;20472;-73
2021/03/08 01:43:47;;;;;;;3.93;1.90;;;;;;;1.77;89.51;100948.28;5070304;28;20561;-73
2021/03/08 01:46:12;;;;;;;2.33;2.13;;;;;;;1.60;89.94;100960.88;5070298;28;20179;-72
2021/03/08 01:48:37;;;;;;;0.67;0.67;;;;;;;1.61;89.67;100950.91;5070254;28;20577;-73
2021/03/08 01:51:05;;;;;;;1.73;1.10;;;;;;;1.70;90.19;100960.22;5070186;28;20182;-73
2021/03/08 01:53:30;;;;;;;2.00;1.90;;;;;;;1.84;90.11;100955.38;5070272;28;20242;-73
2021/03/08 01:55:56;;;;;;;1.23;1.13;;;;;;;1.77;90.24;100956.34;5070763;28;20364;-73
2021/03/08 01:58:23;;;;;;;6.67;2.03;;;;;;;1.55;91.23;100955.38;5073622;28;20257;-73
2021/03/08 02:00:49;;;;;;;1.73;0.57;;;;;;;1.69;91.55;100967.50;5073821;28;20213;-73
2021/03/08 02:03:15;;;;;;;0.53;0.53;;;;;;;1.65;91.90;100960.97;5073807;28;20421;-73
2021/03/08 02:05:44;;;;;;;2.13;1.93;;;;;;;1.58;92.50;100956.75;5073760;28;20257;-73
2021/03/08 02:08:12;;;;;;;4.43;2.03;;;;;;;1.62;92.35;100961.44;5074103;28;20665;-73
2021/03/08 02:10:40;;;;;;;0.50;0.47;;;;;;;1.62;92.32;100960.63;5077212;28;20416;-73
2021/03/08 02:13:35;;;;;;;2.33;0.67;;;;;;;1.58;91.69;100962.13;5075423;28;20424;-73
2021/03/08 02:16:17;;;;;;;0.60;0.50;;;;;;;1.54;91.88;100955.59;5073819;28;20178;-73
2021/03/08 02:19:00;;;;;;;0.60;0.50;;;;;;;1.54;91.99;100955.59;5068851;28;20531;-73
2021/03/08 02:21:56;;;;;;;1.50;1.40;;;;;;;1.48;92.20;100955.50;5073401;28;20898;-73
2021/03/08 02:24:41;;;;;;;0.67;0.67;;;;;;;1.48;92.72;100954.69;5073319;28;20428;-73
2021/03/08 02:27:37;;;;;;;0.73;0.60;;;;;;;1.46;93.62;100954.94;5073061;28;20409;-73
2021/03/08 02:30:27;;;;;;;1.40;1.17;;;;;;;1.46;94.02;100956.81;5073240;28;20432;-74
2021/03/08 02:32:54;;;;;;;1.53;1.10;;;;;;;1.43;94.23;100947.31;5073327;28;20416;-73
2021/03/08 02:35:25;;;;;;;0.97;0.83;;;;;;;1.50;94.34;100947.19;5073073;28;20420;-73
2021/03/08 02:37:54;;;;;;;3.23;1.17;;;;;;;1.55;94.46;100958.06;5072716;28;20645;-74
2021/03/08 02:40:24;;;;;;;2.60;0.70;;;;;;;1.58;93.66;100946.81;5072963;28;20263;-74
2021/03/08 02:42:58;;;;;;;4.70;0.40;;;;;;;1.65;93.40;100954.75;5072920;28;20437;-73
2021/03/08 02:45:27;;;;;;;9.97;0.83;;;;;;;1.68;93.45;100952.41;5071696;28;20173;-74
2021/03/08 02:47:54;;;;;;;1.33;1.30;;;;;;;1.67;93.01;100950.75;5072463;28;20555;-73
2021/03/08 02:50:26;;;;;;;0.40;0.40;;;;;;;1.62;92.71;100956.06;5071377;28;20271;-74
2021/03/08 02:52:58;;;;;;;6.33;1.20;;;;;;;1.61;93.16;100953.63;5072801;28;20174;-73
2021/03/08 02:55:34;;;;;;;1.30;1.00;;;;;;;1.64;93.13;100953.94;5072755;28;20748;-74
2021/03/08 02:58:02;;;;;;;1.20;0.67;;;;;;;1.57;93.29;100945.16;5072597;28;20690;-74
2021/03/08 03:00:29;;;;;;;1.27;0.80;;;;;;;1.67;92.85;100955.34;5072657;28;20897;-73
2021/03/08 03:02:56;;;;;;;2.07;1.13;;;;;;;1.69;92.65;100950.53;5072667;28;20210;-74
2021/03/08 03:05:22;;;;;;;1.30;0.47;;;;;;;1.70;92.02;100958.34;5072768;28;20424;-74
2021/03/08 03:07:51;;;;;;;7.13;0.80;;;;;;;1.60;92.43;100950.09;5071496;28;20167;-74
2021/03/08 03:10:17;;;;;;;0.80;0.30;;;;;;;1.59;92.40;100959.25;5071137;28;20182;-74
2021/03/08 03:12:45;;;;;;;0.50;0.50;;;;;;;1.51;91.80;100958.78;5072636;28;20179;-74
2021/03/08 03:15:12;;;;;;;0.50;0.50;;;;;;;1.68;92.13;100963.16;5072125;28;20273;-73
2021/03/08 03:17:39;;;;;;;2.40;1.13;;;;;;;1.64;92.20;100969.28;5071986;28;20263;-74
2021/03/08 03:20:09;;;;;;;0.40;0.40;;;;;;;1.33;92.24;100963.28;5072433;28;20206;-73
2021/03/08 03:22:35;;;;;;;3.57;1.27;;;;;;;1.35;92.43;100974.63;5072167;28;20179;-73
2021/03/08 03:25:02;;;;;;;1.70;1.17;;;;;;;1.63;92.28;100965.78;5072174;28;20221;-74
2021/03/08 03:27:28;;;;;;;3.37;1.20;;;;;;;1.77;91.66;100960.94;5071199;28;20249;-74
2021/03/08 03:29:55;;;;;;;0.50;0.50;;;;;;;1.78;91.25;100971.44;5072030;28;20432;-73
2021/03/08 03:32:21;;;;;;;4.00;1.03;;;;;;;1.74;91.51;100977.56;5071934;28;20631;-73
2021/03/08 03:34:47;;;;;;;0.80;0.80;;;;;;;1.79;91.08;100973.09;5071404;28;20833;-73
2021/03/08 03:37:17;;;;;;;0.70;0.70;;;;;;;1.79;90.78;100981.16;5071205;28;20205;-73
2021/03/08 03:39:42;;;;;;;0.57;0.57;;;;;;;1.88;90.45;100984.31;5071825;28;20297;-73
2021/03/08 03:42:08;;;;;;;0.43;0.43;;;;;;;1.53;90.86;100988.97;5071796;28;20270;-74
2021/03/08 03:44:33;;;;;;;2.30;0.97;;;;;;;1.41;90.97;100991.69;5071800;28;20178;-74
2021/03/08 03:46:59;;;;;;;5.33;0.70;;;;;;;1.48;91.71;100993.22;5071685;28;20175;-74
2021/03/08 03:49:24;;;;;;;0.57;0.53;;;;;;;1.62;91.65;100990.25;5071658;28;20174;-73
2021/03/08 03:51:50;;;;;;;0.57;0.57;;;;;;;1.33;91.78;101000.16;5071792;28;20255;-73
2021/03/08 03:54:15;;;;;;;1.47;1.37;;;;;;;1.44;91.81;101010.06;5071514;28;20179;-74
2021/03/08 03:56:50;;;;;;;2.37;1.60;;;;;;;1.09;91.42;101010.91;5071446;28;20604;-73
2021/03/08 03:59:21;;;;;;;0.63;0.63;;;;;;;1.07;91.89;101007.66;5071462;28;20180;-74
2021/03/08 04:01:58;;;;;;;1.90;0.97;;;;;;;0.98;92.49;101017.13;5071490;28;21070;-74
2021/03/08 04:04:34;;;;;;;5.93;3.17;;;;;;;0.92;92.26;101022.63;5071348;28;20421;-73
2021/03/08 04:07:03;;;;;;;7.43;4.50;;;;;;;0.79;91.55;101013.72;5071178;28;20397;-74
2021/03/08 04:09:29;;;;;;;7.13;3.27;;;;;;;0.81;91.54;101021.56;5071136;28;20948;-74
2021/03/08 04:11:57;;;;;;;7.63;4.53;;;;;;;0.71;91.89;101027.50;5071602;28;20431;-74
2021/03/08 04:14:24;;;;;;;3.30;3.00;;;;;;;0.67;92.09;101028.19;5071124;28;20934;-73
2021/03/08 04:16:53;;;;;;;18.57;4.43;;;;;;;0.55;92.47;101029.00;5071046;28;20434;-74
2021/03/08 04:19:22;;;;;;;3.50;3.20;;;;;;;0.52;92.07;101026.78;5071063;28;20417;-73
2021/03/08 04:21:51;;;;;;;10.10;4.40;;;;;;;0.51;92.54;101030.50;5071033;28;20768;-73
2021/03/08 04:24:19;;;;;;;6.87;2.23;;;;;;;0.52;92.43;101026.78;5071072;28;20429;-73
2021/03/08 04:26:47;;;;;;;4.80;3.53;;;;;;;0.50;92.33;101034.25;5070786;28;20970;-73
2021/03/08 04:29:13;;;;;;;4.53;2.07;;;;;;;0.55;92.32;101023.63;5071077;28;20421;-73
2021/03/08 04:31:39;;;;;;;3.53;2.83;;;;;;;0.55;91.93;101031.69;5071068;28;20432;-73
2021/03/08 04:34:06;;;;;;;6.93;3.27;;;;;;;0.79;91.76;101037.94;5071021;28;20424;-73
2021/03/08 04:36:32;;;;;;;9.07;3.07;;;;;;;1.00;91.09;101035.72;5070687;28;20197;-74
2021/03/08 04:38:59;;;;;;;8.27;2.47;;;;;;;1.10;90.41;101033.25;5071276;28;20190;-74
2021/03/08 04:41:30;;;;;;;10.77;3.87;;;;;;;1.14;89.63;101035.25;5070697;28;20507;-73
2021/03/08 04:43:57;;;;;;;3.27;2.33;;;;;;;1.18;89.10;101039.13;5071216;28;20380;-73
2021/03/08 04:46:23;;;;;;;4.13;2.87;;;;;;;1.21;88.19;101040.53;5070628;28;20772;-73
2021/03/08 04:48:49;;;;;;;5.53;2.37;;;;;;;1.14;88.19;101045.19;5070854;28;20279;-73
2021/03/08 04:51:16;;;;;;;2.67;2.23;;;;;;;1.14;88.10;101042.50;5070659;28;20261;-73
2021/03/08 04:53:42;;;;;;;7.60;2.50;;;;;;;1.00;87.94;101052.66;5070992;28;20170;-74
2021/03/08 04:56:08;;;;;;;3.30;2.13;;;;;;;1.12;87.69;101042.72;5070494;28;20171;-73
2021/03/08 04:58:34;;;;;;;9.10;2.57;;;;;;;1.08;86.67;101049.66;5070708;28;20536;-73
2021/03/08 05:00:59;;;;;;;3.43;1.63;;;;;;;0.78;86.13;101038.97;5070715;28;20210;-73
2021/03/08 05:03:26;;;;;;;13.70;2.30;;;;;;;0.47;86.34;101041.97;5070653;28;20187;-73
2021/03/08 05:05:55;;;;;;;4.60;2.50;;;;;;;0.15;87.10;101044.91;5070660;28;20173;-73
2021/03/08 05:08:24;;;;;;;1.53;1.43;;;;;;;-0.07;87.49;101044.56;5070369;28;20424;-73
2021/03/08 05:10:51;;;;;;;2.00;1.90;;;;;;;-0.27;88.39;101048.53;5070515;28;20428;-73
2021/03/08 05:13:19;;;;;;;2.83;2.63;;;;;;;-0.43;89.19;101047.28;5070619;28;20968;-73
2021/03/08 05:15:45;;;;;;;2.80;2.03;;;;;;;-0.57;89.88;101048.47;5070599;28;20420;-73
2021/03/08 05:18:11;;;;;;;3.97;2.03;;;;;;;-0.73;91.00;101048.00;5068935;28;20936;-73
2021/03/08 05:20:37;;;;;;;7.00;3.47;;;;;;;-0.79;91.17;101046.19;5070652;28;20198;-73
2021/03/08 05:23:03;;;;;;;7.43;2.87;;;;;;;-0.88;91.90;101052.88;5070582;28;20432;-73
2021/03/08 05:25:30;;;;;;;1.03;0.93;;;;;;;-0.92;92.11;101038.28;5070485;28;20181;-73
2021/03/08 05:27:56;;;;;;;2.10;2.00;;;;;;;-0.94;92.56;101051.09;5068948;28;20441;-73
2021/03/08 05:30:23;;;;;;;8.37;1.93;;;;;;;-0.93;93.19;101053.56;5071599;28;20956;-73
2021/03/08 05:33:00;;;;;;;2.37;2.17;;;;;;;-0.92;93.35;101055.19;5074514;28;20940;-74
2021/03/08 05:35:27;;;;;;;8.43;2.00;;;;;;;-0.80;93.72;101060.66;5074494;28;20433;-73
2021/03/08 05:37:54;;;;;;;2.30;1.63;;;;;;;-0.89;94.83;101080.75;5074250;28;20757;-73
2021/03/08 05:40:28;;;;;;;3.13;2.73;;;;;;;-0.57;94.66;101072.63;5074320;28;20456;-73
2021/03/08 05:43:05;;;;;;;1.67;1.27;;;;;;;-0.49;93.95;101078.50;5074129;28;20428;-73
2021/03/08 05:45:34;;;;;;;4.30;2.90;;;;;;;-0.46;93.32;101085.28;5074260;28;20440;-73
2021/03/08 05:48:02;;;;;;;5.93;1.93;;;;;;;-0.39;93.20;101089.56;5073733;28;20906;-74
2021/03/08 05:50:46;;;;;;;2.80;1.73;;;;;;;-0.32;93.74;101090.28;5074083;28;20417;-74
2021/03/08 05:53:35;;;;;;;4.63;2.27;;;;;;;-0.26;93.29;101091.28;5074303;28;20480;-73
2021/03/08 05:56:25;;;;;;;13.60;3.23;;;;;;;-0.30;93.16;101090.06;5072520;28;20416;-73
2021/03/08 05:59:19;;;;;;;2.60;2.40;;;;;;;-0.30;92.26;101100.78;5074077;28;20459;-73
2021/03/08 06:02:01;;;;;;;3.67;3.37;;;;;;;-0.26;92.60;101103.88;5073913;28;20428;-74
2021/03/08 06:04:38;;;;;;;6.70;2.80;;;;;;;-0.29;92.43;101110.50;5073926;28;20423;-73
2021/03/08 06:07:09;;;;;;;2.70;2.20;;;;;;;-0.33;92.07;101103.94;5073354;28;20493;-73
2021/03/08 06:10:06;;;;;;;3.07;2.33;;;;;;;-0.34;91.88;101113.84;5073986;28;20410;-73
2021/03/08 06:12:39;;;;;;;1.20;1.13;;;;;;;-0.27;92.49;101108.44;5073484;28;20433;-72
2021/03/08 06:15:08;;;;;;;3.90;2.27;;;;;;;-0.12;92.74;101108.06;5073543;28;20417;-73
2021/03/08 06:17:36;;;;;;;1.67;1.57;;;;;;;-0.12;91.99;101124.16;5073159;28;20421;-73
2021/03/08 06:20:03;;;;;;;2.53;1.87;;;;;;;-0.21;91.11;101120.94;5073683;28;20513;-73
2021/03/08 06:22:29;;;;;;;1.60;1.50;;;;;;;-0.31;90.83;101120.63;5073514;28;20421;-73
2021/03/08 06:24:55;;;;;;;1.13;0.93;;;;;;;-0.30;90.73;101127.66;5073540;28;20460;-73
2021/03/08 06:27:23;;;;;;;2.13;2.03;;;;;;;-0.37;91.17;101126.91;5073077;28;20436;-72
2021/03/08 06:29:48;;;;;;;2.93;2.80;;;;;;;-0.43;91.22;101133.19;5073676;28;20474;-73
2021/03/08 06:32:14;;;;;;;1.17;1.07;;;;;;;-0.35;91.56;101125.63;5073509;28;20421;-73
2021/03/08 06:34:40;;;;;;;8.83;2.73;;;;;;;-0.29;91.85;101129.28;5073252;28;20182;-73
2021/03/08 06:37:10;;;;;;;1.50;1.20;;;;;;;-0.13;92.29;101130.59;5073034;28;20206;-73
2021/03/08 06:39:41;;;;;;;3.00;2.43;;;;;;;0.01;91.61;101133.94;5071744;28;20435;-73
2021/03/08 06:42:07;;;;;;;2.10;1.90;;;;;;;0.08;91.23;101140.84;5071904;28;20428;-73
2021/03/08 06:44:33;;;;;;;2.80;1.50;;;;;;;0.23;90.95;101143.16;5073293;28;20614;-73
2021/03/08 06:46:59;;;;;;;2.50;1.90;;;;;;;0.31;90.45;101137.50;5072929;28;20420;-73
2021/03/08 06:49:24;;;;;;;2.07;1.50;;;;;;;0.33;90.07;101148.81;5073535;28;20942;-73
2021/03/08 06:52:12;;;;;;;1.27;1.17;;;;;;;0.32;89.87;101147.19;5072976;28;20178;-72
2021/03/08 06:54:40;;;;;;;2.23;2.13;;;;;;;0.38;89.82;101151.66;5073200;28;20175;-72
2021/03/08 06:57:25;;;;;;;6.90;2.03;;;;;;;0.30;90.42;101160.03;5072768;28;20467;-72
2021/03/08 06:59:58;;;;;;;1.67;1.57;;;;;;;0.25;90.69;101157.19;5071728;28;20880;-72
2021/03/08 07:02:40;;;;;;;3.07;1.73;;;;;;;0.06;91.84;101163.63;5073108;28;20159;-72
2021/03/08 07:05:07;;;;;;;2.50;2.30;;;;;;;0.23;91.72;101160.09;5072865;28;20555;-72
2021/03/08 07:07:48;;;;;;;2.40;2.20;;;;;;;0.46;91.24;101159.41;5072807;28;20504;-72
2021/03/08 07:10:15;;;;;;;10.40;1.83;;;;;;;0.48;90.96;101168.06;5072765;28;20420;-73
2021/03/08 07:12:48;;;;;;;2.03;1.83;;;;;;;0.56;91.20;101164.22;5072702;28;20174;-72
2021/03/08 07:15:14;;;;;;;2.40;2.20;;;;;;;0.33;90.88;101167.63;5071284;28;20421;-73
2021/03/08 07:17:39;;;;;;;7.27;2.10;;;;;;;0.19;91.24;101175.03;5072235;28;20223;-72
2021/03/08 07:20:09;;;;;;;3.67;2.07;;;;;;;-0.04;91.64;101167.63;5072747;28;20678;-73
2021/03/08 07:22:48;;;;;;;1.73;1.40;;;;;;;-0.07;92.61;101170.78;5072398;28;20170;-73
2021/03/08 07:25:32;;;;;;;2.37;1.43;;;;;;;0.13;92.31;101180.47;5071068;28;20497;-73
2021/03/08 07:28:04;;;;;;;3.33;2.20;;;;;;;0.40;92.43;101181.81;5070774;28;20421;-72
2021/03/08 07:30:37;;;;;;;2.60;2.40;;;;;;;0.59;91.53;101182.63;5072471;28;20413;-72
2021/03/08 07:33:10;;;;;;;2.90;2.47;;;;;;;0.18;91.37;101186.00;5072375;28;20522;-72
2021/03/08 07:35:39;;;;;;;2.37;2.17;;;;;;;0.32;91.12;101178.63;5072075;28;20766;-74
2021/03/08 07:38:07;;;;;;;2.90;2.17;;;;;;;0.56;91.07;101185.72;5071540;28;20936;-72
2021/03/08 07:40:35;;;;;;;2.10;1.90;;;;;;;0.50;90.73;101190.16;5071724;28;20502;-72
2021/03/08 07:43:00;;;;;;;6.27;1.60;;;;;;;0.48;90.38;101192.25;5071612;28;20451;-73
2021/03/08 07:45:52;;;;;;;2.10;1.70;;;;;;;0.38;92.22;101183.91;5071725;28;20440;-72
2021/03/08 07:48:19;;;;;;;4.07;1.83;;;;;;;0.44;92.19;101183.00;5069425;28;20191;-72
2021/03/08 07:50:47;;;;;;;1.13;0.83;;;;;;;0.44;91.63;101185.69;5071908;28;20490;-72
2021/03/08 07:53:25;;;;;;;1.83;1.23;;;;;;;0.51;91.70;101189.13;5071359;28;20964;-73
2021/03/08 07:55:56;;;;;;;1.27;1.17;;;;;;;0.65;91.17;101191.63;5071618;28;20897;-73
2021/03/08 07:58:22;;;;;;;1.47;1.20;;;;;;;0.66;90.82;101202.16;5071790;28;20420;-72
2021/03/08 08:00:47;;;;;;;3.70;1.87;;;;;;;0.51;90.28;101199.88;5071589;28;20464;-72
2021/03/08 08:03:17;;;;;;;2.27;1.37;;;;;;;0.65;89.83;101205.06;5071469;28;20435;-72
2021/03/08 08:05:43;;;;;;;1.37;1.27;;;;;;;0.68;90.12;101205.44;5071565;28;20167;-72
2021/03/08 08:08:09;;;;;;;4.53;1.67;;;;;;;0.76;90.13;101207.81;5070698;28;20429;-72
2021/03/08 08:10:36;;;;;;;1.67;1.57;;;;;;;0.78;90.54;101211.09;5071058;28;21004;-71
2021/03/08 08:13:03;;;;;;;5.53;1.97;;;;;;;0.79;89.30;101201.97;5069790;28;20179;-72
2021/03/08 08:15:31;;;;;;;1.73;1.63;;;;;;;0.99;89.35;101206.25;5051671;28;20414;-72
2021/03/08 08:17:59;;;;;;;6.63;2.07;;;;;;;1.16;88.62;101207.25;5051060;28;20417;-71
2021/03/08 08:20:28;;;;;;;1.60;1.00;;;;;;;1.14;87.98;101214.72;5052439;28;20945;-71
2021/03/08 08:22:57;;;;;;;5.23;2.23;;;;;;;1.07;86.25;101208.63;5057182;28;20413;-71
2021/03/08 08:25:23;;;;;;;5.90;4.40;;;;;;;0.95;86.37;101208.59;5052882;28;20475;-72
2021/03/08 08:27:49;;;;;;;1.87;1.63;;;;;;;0.59;87.17;101209.50;5051005;28;20417;-72
2021/03/08 08:30:16;;;;;;;5.03;1.20;;;;;;;0.59;87.71;101209.50;5051127;28;20166;-72
2021/03/08 08:32:52;;;;;;;2.07;1.97;;;;;;;0.90;88.23;101211.16;5059085;28;20186;-72
2021/03/08 08:35:21;;;;;;;1.33;1.23;;;;;;;0.65;88.22;101213.97;5053374;28;20835;-72
2021/03/08 08:38:20;;;;;;;1.37;1.27;;;;;;;0.55;88.79;101211.78;5070334;28;20508;-72
2021/03/08 08:40:45;;;;;;;1.63;1.53;;;;;;;0.47;89.71;101216.69;5070555;28;20472;-72
2021/03/08 08:43:13;;;;;;;1.73;1.63;;;;;;;0.38;89.70;101220.72;5070469;28;20432;-71
2021/03/08 08:45:40;;;;;;;3.57;1.80;;;;;;;0.37;89.30;101219.06;5069370;28;20178;-72
2021/03/08 08:48:06;;;;;;;3.90;2.37;;;;;;;0.56;89.88;101218.00;5070328;28;20958;-71
2021/03/08 08:50:54;;;;;;;1.83;1.60;;;;;;;0.68;88.57;101226.13;5070663;28;20457;-72
2021/03/08 08:53:35;;;;;;;1.93;1.50;;;;;;;1.04;88.35;101217.97;5070648;28;20407;-72
2021/03/08 08:56:05;;;;;;;2.20;1.63;;;;;;;1.30;87.39;101221.31;5070834;28;20435;-72
2021/03/08 08:58:34;;;;;;;1.33;1.10;;;;;;;1.47;86.09;101215.03;5070523;28;20512;-72
2021/03/08 09:01:16;;;;;;;1.00;1.00;;;;;;;1.49;85.28;101215.63;5070518;28;20486;-72
2021/03/08 09:04:01;;;;;;;1.73;1.63;;;;;;;1.83;85.24;101215.88;5069360;28;20656;-72
2021/03/08 09:06:41;;;;;;;3.23;2.47;;;;;;;1.99;84.35;101214.34;5069581;28;20420;-72
2021/03/08 09:09:08;;;;;;;3.80;2.03;;;;;;;1.94;83.88;101209.66;5069236;28;20269;-74
2021/03/08 09:11:51;;;;;;;1.80;1.70;;;;;;;1.81;83.32;101212.59;5070522;28;20417;-72
2021/03/08 09:14:37;;;;;;;1.77;1.47;;;;;;;1.99;83.18;101214.34;5069306;28;20947;-72
2021/03/08 09:17:07;;;;;;;1.67;1.10;;;;;;;1.98;83.02;101215.41;5069324;28;20822;-72
2021/03/08 09:19:32;;;;;;;1.60;1.33;;;;;;;2.03;82.56;101215.53;5070485;28;20927;-72
2021/03/08 09:22:20;;;;;;;2.17;2.07;;;;;;;2.24;82.70;101214.09;5070430;28;20182;-72
2021/03/08 09:24:45;;;;;;;2.73;1.70;;;;;;;1.99;81.56;101214.34;5070567;28;20182;-72
2021/03/08 09:27:23;;;;;;;1.20;1.10;;;;;;;1.75;82.52;101206.28;5068005;28;20698;-72
2021/03/08 09:29:49;;;;;;;2.00;1.57;;;;;;;1.81;83.13;101211.78;5070405;28;20604;-72
2021/03/08 09:32:15;;;;;;;3.73;2.77;;;;;;;2.06;82.00;101209.66;5070442;28;20520;-72
2021/03/08 09:34:41;;;;;;;4.93;1.60;;;;;;;1.93;81.96;101212.59;5070497;28;20236;-73
2021/03/08 09:37:07;;;;;;;9.23;1.30;;;;;;;1.93;81.64;101220.69;5068481;28;20441;-73
2021/03/08 09:39:46;;;;;;;1.70;1.60;;;;;;;2.24;81.82;101225.69;5066255;28;20185;-73
2021/03/08 09:42:11;;;;;;;4.93;1.50;;;;;;;2.43;79.78;101225.53;5070630;28;20445;-73
2021/03/08 09:44:44;;;;;;;0.90;0.90;;;;;;;2.43;78.14;101220.13;5070201;28;20182;-73
2021/03/08 09:47:11;;;;;;;1.50;1.40;;;;;;;2.45;77.26;101223.41;5069916;28;20284;-73
2021/03/08 09:49:53;;;;;;;2.23;1.50;;;;;;;2.47;77.32;101224.00;5070812;28;20173;-73
2021/03/08 09:52:37;;;;;;;4.00;1.63;;;;;;;2.68;77.21;101221.47;5070284;28;20184;-72
2021/03/08 09:55:04;;;;;;;1.10;1.10;;;;;;;2.76;77.10;101224.88;5068791;28;20425;-73
2021/03/08 09:57:35;;;;;;;1.77;1.10;;;;;;;2.16;75.25;101228.72;5069682;28;20167;-72
2021/03/08 10:00:22;;;;;;;2.03;1.43;;;;;;;2.10;75.88;101229.69;5070238;28;20798;-73
2021/03/08 10:02:57;;;;;;;2.43;1.33;;;;;;;2.20;73.43;101234.50;5069073;28;20904;-73
2021/03/08 10:05:35;;;;;;;0.90;0.57;;;;;;;2.03;72.87;101224.44;5070040;28;20877;-73
2021/03/08 10:08:01;;;;;;;0.67;0.63;;;;;;;1.87;72.98;101227.81;5069732;28;20424;-73
2021/03/08 10:10:26;;;;;;;1.13;1.00;;;;;;;1.93;73.46;101224.19;5070123;28;20181;-73
2021/03/08 10:12:59;;;;;;;1.20;1.10;;;;;;;2.01;73.17;101223.00;5070208;28;20645;-73
2021/03/08 10:15:24;;;;;;;2.13;1.30;;;;;;;2.06;72.70;101233.91;5069898;28;20171;-73
2021/03/08 10:18:00;;;;;;;1.50;1.40;;;;;;;2.02;72.97;101232.72;5072652;28;20178;-73
2021/03/08 10:20:32;;;;;;;1.67;1.57;;;;;;;2.30;72.63;101235.50;5073768;28;20240;-73
2021/03/08 10:22:58;;;;;;;1.93;1.83;;;;;;;2.35;72.46;101243.72;5073536;28;20194;-73
2021/03/08 10:25:28;;;;;;;1.57;1.13;;;;;;;2.46;72.31;101238.53;5073392;28;20749;-73
2021/03/08 10:28:02;;;;;;;0.87;0.87;;;;;;;2.37;70.29;101235.41;5073105;28;20179;-72
2021/03/08 10:30:33;;;;;;;0.80;0.80;;;;;;;2.44;69.91;101240.66;5073153;28;20159;-73
2021/03/08 10:33:18;;;;;;;1.37;0.97;;;;;;;2.36;69.98;101237.28;5073232;28;20257;-73
2021/03/08 10:35:46;;;;;;;2.03;1.30;;;;;;;2.26;69.05;101231.66;5073102;28;20205;-73
2021/03/08 10:38:13;;;;;;;1.20;1.00;;;;;;;2.48;70.25;101231.03;5072703;28;20766;-74
2021/03/08 10:40:41;;;;;;;1.00;0.90;;;;;;;2.47;70.64;101234.81;5073091;28;20197;-73
2021/03/08 10:43:08;;;;;;;1.63;1.53;;;;;;;2.88;71.19;101236.41;5072898;28;20218;-73
2021/03/08 10:45:33;;;;;;;1.10;0.90;;;;;;;2.86;67.37;101233.13;5072947;28;20206;-73
2021/03/08 10:48:09;;;;;;;0.93;0.90;;;;;;;2.73;66.50;101236.13;5071482;28;20213;-73
2021/03/08 10:50:53;;;;;;;0.93;0.93;;;;;;;2.83;66.41;101225.53;5071621;28;20224;-74
2021/03/08 10:53:19;;;;;;;1.67;1.57;;;;;;;2.75;66.53;101232.13;5072858;28;20170;-73
2021/03/08 10:55:46;;;;;;;0.83;0.83;;;;;;;2.95;64.68;101231.69;5072811;28;20530;-73
2021/03/08 10:58:12;;;;;;;0.73;0.50;;;;;;;2.90;61.33;101220.81;5071048;28;20171;-73
2021/03/08 11:00:41;;;;;;;0.47;0.47;;;;;;;3.07;58.11;101221.66;5072592;28;20484;-73
2021/03/08 11:03:32;;;;;;;1.40;1.30;;;;;;;3.17;58.49;101229.13;5072541;28;20202;-74
2021/03/08 11:06:05;;;;;;;0.67;0.43;;;;;;;3.20;58.04;101220.56;5072708;28;20212;-74
2021/03/08 11:08:31;;;;;;;0.80;0.80;;;;;;;3.20;58.08;101226.78;5072115;28;20181;-74
2021/03/08 11:10:56;;;;;;;0.80;0.60;;;;;;;3.43;56.87;101219.56;5071407;28;20171;-74
2021/03/08 11:13:31;;;;;;;0.93;0.93;;;;;;;3.29;57.24;101221.78;5070048;28;20228;-73
2021/03/08 11:16:10;;;;;;;0.40;0.40;;;;;;;3.13;58.38;101217.16;5064766;28;20185;-74
2021/03/08 11:18:36;;;;;;;0.80;0.80;;;;;;;3.40;58.18;101223.59;5071754;28;20178;-74
2021/03/08 11:21:20;;;;;;;0.80;0.80;;;;;;;3.27;57.67;101232.81;5072206;28;20291;-75
2021/03/08 11:23:46;;;;;;;0.50;0.50;;;;;;;3.44;53.54;101222.03;5070832;28;20269;-73
2021/03/08 11:26:11;;;;;;;0.40;0.40;;;;;;;3.51;52.80;101222.69;5067418;28;20269;-75
2021/03/08 11:28:41;;;;;;;1.57;1.47;;;;;;;3.84;55.44;101231.84;5071390;28;20597;-73
2021/03/08 11:31:18;;;;;;;1.03;0.60;;;;;;;3.78;53.56;101216.66;5071713;28;20178;-75
2021/03/08 11:33:48;;;;;;;0.73;0.73;;;;;;;3.85;55.61;101214.56;5070794;28;20205;-75
2021/03/08 11:36:13;;;;;;;0.53;0.53;;;;;;;3.77;55.80;101223.94;5071838;28;20206;-75
2021/03/08 11:38:38;;;;;;;0.70;0.70;;;;;;;3.64;52.71;101210.75;5071870;28;20206;-74
2021/03/08 11:41:04;;;;;;;1.10;1.03;;;;;;;3.68;54.10;101217.28;5071844;28;20190;-75
2021/03/08 11:43:32;;;;;;;0.77;0.77;;;;;;;3.51;52.82;101216.47;5071681;28;20179;-75
2021/03/08 11:45:57;;;;;;;0.70;0.53;;;;;;;3.72;54.44;101214.91;5071727;28;20186;-75